Flight Track Log - Related Links

Times and Time Zones

All times are in EDT time to prevent confusion due to time zone crossing. See the EJA922 flight status page for this flight to view local times or setup timezone preferences in your user account.

Time Position Orientation Groundspeed Altitude Reporting Facility
EDT Latitude Longitude Course Direction KTS MPH feet Rate Location/Type
Wed 05:41:51 PM 41.0161 -81.5142 273° West 219 252 2,700  Level Cleveland Center
Wed 05:42:53 PM 40.9836 -81.5897 240° Southwest 232 267 3,300 1,597 Climbing Cleveland Center
Wed 05:43:55 PM 40.9253 -81.6403 213° Southwest 253 291 6,000 2,784 Climbing Cleveland Center
Wed 05:44:58 PM 40.8886 -81.7294 241° Southwest 278 320 9,100 2,419 Climbing Cleveland Center
Wed 05:45:59 PM 40.8869 -81.8378 269° West 291 335 11,000 1,902 Climbing Cleveland Center
Wed 05:47:00 PM 40.8342 -82.1186 273° West  Level FlightAware Approximate
Wed 05:47:01 PM 40.8842 -81.9661 268° West 337 388 13,000  Level Cleveland Center
Wed 05:48:03 PM 40.8703 -82.0983 262° West 357 411 15,100 1,828 Climbing Cleveland Center
Wed 05:49:09 PM 40.8417 -82.2553 257° West 371 427 16,900 1,594 Climbing Indianapolis Center
Wed 05:50:11 PM 40.8169 -82.3947 257° West 383 441 18,500 1,645 Climbing Indianapolis Center
Wed 05:51:13 PM 40.7908 -82.5356 256° West 390 449 20,300 1,597 Climbing Indianapolis Center
Wed 05:52:15 PM 40.7653 -82.6778 257° West 392 451 21,800 1,355 Climbing Indianapolis Center
Wed 05:53:17 PM 40.7394 -82.8236 257° West 400 460 23,100 1,258 Climbing Indianapolis Center
Wed 05:54:19 PM 40.7122 -82.9703 256° West 408 470 24,400 1,355 Climbing Indianapolis Center
Wed 05:55:21 PM 40.6803 -83.1475 257° West 417 480 25,900 1,210 Climbing Indianapolis Center
Wed 05:56:23 PM 40.6547 -83.2778 256° West 424 488 26,900 1,258 Climbing Indianapolis Center
Wed 05:57:25 PM 40.6208 -83.4614 256° West 431 496 28,500 1,355 Climbing Indianapolis Center
Wed 05:58:27 PM 40.5925 -83.6153 256° West 436 502 29,700 1,016 Climbing Indianapolis Center
Wed 05:59:29 PM 40.5689 -83.7739 259° West 444 511 30,600 1,161 Climbing Indianapolis Center
Wed 06:00:31 PM 40.5528 -83.9367 263° West 451 519 32,100 1,632 Climbing Indianapolis Center
Wed 06:01:34 PM 40.5378 -84.0975 263° West 446 513 34,000 912 Climbing Indianapolis Center
Wed 06:02:36 PM 40.5181 -84.2961 263° West 462 532 34,000 290 Level Indianapolis Center
Wed 06:03:38 PM 40.5000 -84.4700 262° West 481 554 34,600 1,210 Climbing Indianapolis Center
Wed 06:04:40 PM 40.4825 -84.6392 262° West 472 543 36,500 1,887 Climbing Indianapolis Center
Wed 06:05:42 PM 40.4642 -84.8017 262° West 454 522 38,500 2,032 Climbing Indianapolis Center
Wed 06:06:44 PM 40.4458 -84.9767 262° West 442 509 40,700 1,790 Climbing Indianapolis Center
Wed 06:07:46 PM 40.4297 -85.1267 262° West 423 487 42,200 1,113 Climbing Indianapolis Center
Wed 06:08:48 PM 40.4131 -85.2786 262° West 423 487 43,000 417 Climbing Indianapolis Center
Wed 06:09:41 PM 40.3994 -85.4006 262° West 428 493 43,000  Level Chicago Center
Wed 06:10:43 PM 40.3786 -85.5883 262° West 436 502 43,000  Level Chicago Center
Wed 06:11:45 PM 40.3606 -85.7475 262° West 442 509 43,000  Level Chicago Center
Wed 06:12:47 PM 40.3422 -85.9056 261° West 443 510 43,000  Level Chicago Center
Wed 06:13:49 PM 40.3239 -86.0644 261° West 445 512 43,000  Level Chicago Center
Wed 06:14:51 PM 40.3011 -86.2556 261° West 447 514 43,000  Level Chicago Center
Wed 06:15:53 PM 40.2819 -86.4150 261° West 448 516 43,000  Level Chicago Center
Wed 06:16:55 PM 40.2628 -86.5742 261° West 449 517 43,000  Level Chicago Center
Wed 06:17:57 PM 40.2425 -86.7342 261° West 450 518 43,000  Level Chicago Center
Wed 06:19:00 PM 40.2228 -86.8944 261° West 451 519 43,000  Level Chicago Center
Wed 06:20:02 PM 40.1989 -87.0872 261° West 452 520 43,000  Level Chicago Center
Wed 06:21:04 PM 40.1775 -87.2483 260° West 451 519 43,000  Level Chicago Center
Wed 06:22:06 PM 40.1575 -87.4100 261° West 453 521 43,000  Level Chicago Center
Wed 06:23:08 PM 40.1364 -87.5731 260° West 457 526 43,000  Level Chicago Center
Wed 06:23:42 PM 40.1225 -87.6706 259° West 457 526 43,000  Level Indianapolis Center
Wed 06:24:44 PM 40.1022 -87.8331 261° West 456 525 43,000  Level Indianapolis Center
Wed 06:26:14 PM 40.0664 -88.0972 260° West 463 533 43,000  Level Chicago Center
Wed 06:27:16 PM 40.0444 -88.2522 260° West 462 532 43,000  Level Chicago Center
Wed 06:28:18 PM 40.0225 -88.4183 260° West 463 533 43,000  Level Chicago Center
Wed 06:29:21 PM 39.9942 -88.6156 259° West 461 531 43,000  Level Chicago Center
Wed 06:30:23 PM 39.9711 -88.7814 260° West 462 532 43,000  Level Chicago Center
Wed 06:31:25 PM 39.9478 -88.9450 260° West 459 528 43,000  Level Chicago Center
Wed 06:32:27 PM 39.9214 -89.1125 258° West 465 535 43,000  Level Chicago Center
Wed 06:33:29 PM 39.8978 -89.2775 259° West 464 534 43,000  Level Chicago Center
Wed 06:34:31 PM 39.8725 -89.4428 259° West 464 534 43,000  Level Chicago Center
Wed 06:35:33 PM 39.8503 -89.6058 260° West 457 526 43,000  Level Chicago Center
Wed 06:36:35 PM 39.8275 -89.8056 262° West 462 532 43,000  Level Chicago Center
Wed 06:37:37 PM 39.8136 -89.9728 264° West 461 531 43,000  Level Chicago Center
Wed 06:38:39 PM 39.7978 -90.1383 263° West 458 527 43,000  Level Chicago Center
Wed 06:39:41 PM 39.7819 -90.2981 263° West 446 513 43,000  Level Chicago Center
Wed 06:40:44 PM 39.7647 -90.4572 262° West 442 509 43,000  Level Chicago Center
Wed 06:41:46 PM 39.7542 -90.6228 265° West 458 527 43,000  Level Chicago Center
Wed 06:42:48 PM 39.7342 -90.8139 262° West 449 517 43,000  Level Chicago Center
Wed 06:44:05 PM 39.7161 -91.0078 263° West 450 518 43,000  Level Kansas City Center
Wed 06:45:08 PM 39.7003 -91.1686 263° West 451 519 43,000  Level Kansas City Center
Wed 06:46:12 PM 39.6844 -91.3264 263° West 452 520 43,000  Level Kansas City Center
Wed 06:47:13 PM 39.6650 -91.5192 263° West 452 520 43,000  Level Kansas City Center
Wed 06:48:14 PM 39.6464 -91.6819 262° West 455 524 43,000  Level Kansas City Center
Wed 06:49:15 PM 39.6303 -91.8431 263° West 455 524 43,000  Level Kansas City Center
Wed 06:50:19 PM 39.6133 -92.0019 262° West 451 519 43,000  Level Kansas City Center
Wed 06:51:19 PM 39.5956 -92.1622 262° West 450 518 43,000  Level Kansas City Center
Wed 06:52:23 PM 39.5778 -92.3222 262° West 450 518 43,000  Level Kansas City Center
Wed 06:53:25 PM 39.5575 -92.5125 262° West 448 516 43,000  Level Kansas City Center
Wed 06:54:25 PM 39.5392 -92.6703 261° West 447 514 43,000  Level Kansas City Center
Wed 06:55:29 PM 39.5203 -92.8328 261° West 446 513 43,000  Level Kansas City Center
Wed 06:56:30 PM 39.5019 -92.9872 261° West 446 513 43,000  Level Kansas City Center
Wed 06:57:34 PM 39.4836 -93.1442 261° West 445 512 43,000  Level Kansas City Center
Wed 06:58:34 PM 39.4606 -93.3339 261° West 446 513 43,000  Level Kansas City Center
Wed 06:59:38 PM 39.4419 -93.4919 261° West 447 514 43,000  Level Kansas City Center
Wed 07:00:41 PM 39.4228 -93.6503 261° West 447 514 43,000  Level Kansas City Center
Wed 07:01:43 PM 39.4042 -93.8078 261° West 442 509 43,000  Level Kansas City Center
Wed 07:02:46 PM 39.3828 -93.9831 261° West 441 507 43,000  Level Kansas City Center
Wed 07:03:47 PM 39.3639 -94.1333 261° West 443 510 43,000  Level Kansas City Center
Wed 07:04:48 PM 39.3414 -94.3083 261° West 442 509 43,000  Level Kansas City Center
Wed 07:05:51 PM 39.3219 -94.4578 260° West 441 507 43,000  Level Kansas City Center
Wed 07:06:53 PM 39.2989 -94.6314 260° West 440 506 43,000  Level Kansas City Center
Wed 07:07:56 PM 39.2789 -94.7797 260° West 440 506 43,000  Level Kansas City Center
Wed 07:08:58 PM 39.2592 -94.9575 262° West 454 522 43,000  Level Kansas City Center
Wed 07:09:59 PM 39.2408 -95.1181 262° West 437 503 43,000  Level Kansas City Center
Wed 07:11:01 PM 39.2211 -95.2864 261° West 442 509 43,000  Level Kansas City Center
Wed 07:12:05 PM 39.2025 -95.4403 261° West 438 504 43,000  Level Kansas City Center
Wed 07:13:05 PM 39.1867 -95.5908 262° West 438 504 43,000  Level Kansas City Center
Wed 07:14:08 PM 39.1656 -95.7633 261° West 436 502 43,000  Level Kansas City Center
Wed 07:15:09 PM 39.1478 -95.9111 261° West 436 502 43,000  Level Kansas City Center
Wed 07:16:10 PM 39.1261 -96.0836 261° West 438 504 43,000  Level Kansas City Center
Wed 07:17:14 PM 39.1078 -96.2303 261° West 434 499 43,000  Level Kansas City Center
Wed 07:18:14 PM 39.0892 -96.3789 261° West 437 503 43,000  Level Kansas City Center
Wed 07:19:18 PM 39.0669 -96.5517 261° West 439 505 43,000  Level Kansas City Center
Wed 07:20:19 PM 39.0464 -96.6981 260° West 438 504 43,000  Level Kansas City Center
Wed 07:21:23 PM 39.0256 -96.8678 261° West 432 497 43,000  Level Kansas City Center
Wed 07:22:25 PM 39.0061 -97.0142 260° West 432 497 43,000  Level Kansas City Center
Wed 07:23:27 PM 38.9839 -97.1847 261° West 435 501 43,000  Level Kansas City Center
Wed 07:24:27 PM 38.9639 -97.3361 260° West 435 501 43,000  Level Kansas City Center
Wed 07:25:31 PM 38.9428 -97.4861 260° West 431 496 43,000  Level Kansas City Center
Wed 07:26:32 PM 38.9183 -97.6417 259° West 427 491 43,000  Level Kansas City Center
Wed 07:27:34 PM 38.8683 -97.8008 248° West 431 496 43,000  Level Kansas City Center
Wed 07:28:35 PM 38.8231 -97.9511 249° West 439 505 43,000  Level Kansas City Center
Wed 07:29:39 PM 38.7783 -98.0931 248° West 434 499 43,000  Level Kansas City Center
Wed 07:30:39 PM 38.7344 -98.2353 248° West 432 497 43,000  Level Kansas City Center
Wed 07:31:41 PM 38.6894 -98.3775 248° West 433 498 43,000  Level Kansas City Center
Wed 07:32:44 PM 38.6447 -98.5203 248° West 434 499 43,000  Level Kansas City Center
Wed 07:33:47 PM 38.5894 -98.6903 247° West 435 501 43,000  Level Kansas City Center
Wed 07:34:48 PM 38.5447 -98.8333 248° West 435 501 43,000  Level Kansas City Center
Wed 07:35:51 PM 38.5003 -98.9753 248° West 433 498 43,000  Level Kansas City Center
Wed 07:36:53 PM 38.4539 -99.1175 247° West 435 501 43,000  Level Kansas City Center
Wed 07:37:55 PM 38.4089 -99.2600 248° West 435 501 43,000  Level Kansas City Center
Wed 07:38:57 PM 38.3614 -99.4022 247° West 435 501 43,000  Level Kansas City Center
Wed 07:39:58 PM 38.3111 -99.5600 248° West 438 504 43,000  Level Kansas City Center
Wed 07:40:59 PM 38.2581 -99.7186 247° West 437 503 43,000  Level Kansas City Center
Wed 07:42:03 PM 38.2119 -99.8542 247° West 438 504 43,000  Level Kansas City Center
Wed 07:43:03 PM 38.1597 -100.0122 247° West 435 501 43,000  Level Kansas City Center
Wed 07:44:07 PM 38.1147 -100.1492 247° West 438 504 43,000  Level Kansas City Center
Wed 07:45:08 PM 38.0608 -100.3078 247° West 439 505 43,000  Level Kansas City Center
Wed 07:46:12 PM 38.0153 -100.4422 247° West 436 502 43,000  Level Kansas City Center
Wed 07:47:12 PM 37.9619 -100.6017 247° West 439 505 43,000  Level Kansas City Center
Wed 07:48:13 PM 37.9158 -100.7364 247° West 439 505 43,000  Level Kansas City Center
Wed 07:49:17 PM 37.8653 -100.8944 248° West 439 505 43,000  Level Kansas City Center
Wed 07:50:20 PM 37.8214 -101.0303 248° West 442 509 43,000  Level Kansas City Center
Wed 07:51:21 PM 37.7692 -101.1881 247° West 442 509 43,000  Level Kansas City Center
Wed 07:52:22 PM 37.7244 -101.3247 248° West 442 509 43,000  Level Kansas City Center
Wed 07:53:26 PM 37.6719 -101.4828 247° West 441 507 43,000  Level Kansas City Center
Wed 07:54:26 PM 37.6278 -101.6189 248° West 439 505 43,000  Level Kansas City Center
Wed 07:55:30 PM 37.5753 -101.7758 247° West 437 503 43,000  Level Kansas City Center
Wed 07:56:31 PM 37.5303 -101.9094 247° West 434 499 43,000  Level Kansas City Center
Wed 07:57:32 PM 37.4781 -102.0658 247° West 434 499 43,000  Level Kansas City Center
Wed 07:58:35 PM 37.4339 -102.1992 247° West 433 498 43,000  Level Kansas City Center
Wed 07:59:39 PM 37.3814 -102.3536 247° West 431 496 43,000  Level Kansas City Center
Wed 08:00:21 PM 37.3464 -102.4600 248° West 430 495 43,000  Level Albuquerque Center
Wed 08:01:23 PM 37.2956 -102.5886 244° Southwest 427 491 43,000  Level Albuquerque Center
Wed 08:02:24 PM 37.2278 -102.7358 240° Southwest 432 497 43,000  Level Albuquerque Center
Wed 08:03:26 PM 37.1708 -102.8600 240° Southwest 429 494 43,000  Level Albuquerque Center
Wed 08:04:28 PM 37.1125 -102.9844 240° Southwest 430 495 43,000  Level Albuquerque Center
Wed 08:05:29 PM 37.0472 -103.1308 241° Southwest 430 495 43,000  Level Albuquerque Center
Wed 08:06:31 PM 36.9883 -103.2536 239° Southwest 428 493 43,000  Level Albuquerque Center
Wed 08:07:33 PM 36.9211 -103.4006 240° Southwest 432 497 43,000  Level Albuquerque Center
Wed 08:08:35 PM 36.8633 -103.5256 240° Southwest 432 497 43,000  Level Albuquerque Center
Wed 08:09:36 PM 36.8047 -103.6492 239° Southwest 432 497 43,000  Level Albuquerque Center
Wed 08:10:38 PM 36.7369 -103.7933 240° Southwest 431 496 43,000  Level Albuquerque Center
Wed 08:11:40 PM 36.6789 -103.9186 240° Southwest 432 497 43,000  Level Albuquerque Center
Wed 08:12:42 PM 36.6106 -104.0622 239° Southwest 434 499 43,000  Level Albuquerque Center
Wed 08:13:44 PM 36.5494 -104.1892 239° Southwest 428 493 43,000  Level Albuquerque Center
Wed 08:14:45 PM 36.4883 -104.3161 239° Southwest 426 490 43,000  Level Albuquerque Center
Wed 08:15:47 PM 36.4267 -104.4433 239° Southwest 427 491 43,000  Level Albuquerque Center
Wed 08:16:49 PM 36.3661 -104.5708 239° Southwest 427 491 43,000  Level Albuquerque Center
Wed 08:17:51 PM 36.3039 -104.6981 239° Southwest 428 493 43,000 -976 Level Albuquerque Center
Wed 08:18:52 PM 36.2314 -104.8475 239° Southwest 430 495 41,000 -2,976 Descending Albuquerque Center
Wed 08:19:54 PM 36.1658 -104.9831 239° Southwest 447 514 36,900 -3,919 Descending Albuquerque Center
Wed 08:20:56 PM 36.0994 -105.1181 239° Southwest 455 524 32,900 -4,065 Descending Albuquerque Center
Wed 08:21:58 PM 36.0297 -105.2583 238° Southwest 469 540 28,500 -4,293 Descending Albuquerque Center
Wed 08:22:59 PM 35.9594 -105.4078 240° Southwest 492 566 24,100 -3,707 Descending Albuquerque Center
Wed 08:24:01 PM 35.9297 -105.5481 255° West 450 518 20,900 -3,194 Descending Albuquerque Center
Wed 08:25:03 PM 35.8967 -105.7044 255° West 409 471 17,500 -2,878 Descending Albuquerque Center
Wed 08:26:04 PM 35.8700 -105.8281 255° West 380 437 15,000 -1,220 Descending Albuquerque Center
Wed 08:27:06 PM 35.8461 -105.9433 256° West 357 411 15,000  Level Albuquerque Center
Wed 08:28:08 PM 35.8178 -106.0567 253° West 345 397 15,000 -1,073 Level Albuquerque Center
Wed 08:29:09 PM 35.7369 -106.0872 197° South 336 387 12,800 -1,756 Descending Albuquerque Center
Wed 08:30:11 PM 35.6608 -106.0936 184° South 304 350 11,400 -1,742 Descending Albuquerque Center
Wed 08:31:13 PM 35.6758 -106.1381 293° West 226 260 9,200 -1,317 Descending Albuquerque Center
Wed 08:32:14 PM 35.7250 -106.1003 32° Northeast 218 251 8,700 -634 Descending Albuquerque Center
Wed 08:33:16 PM 35.6972 -106.0461 122° Southeast 181 208 7,900 -774 Descending Albuquerque Center
Wed 08:34:18 PM 35.6575 -106.0544 190° South 148 170 7,100 -780 Descending Albuquerque Center
Wed 08:35:19 PM 35.6258 -106.0811 214° Southwest 137 158 6,300 -787 Descending Albuquerque Center

Login

Don't have an account? Register now (free) for customized features, flight alerts, and more!